Terminal Aerodrome Forecast
Issued by NWS

Home | Current Version | Previous Version | Text Only | Print | Product List | Glossary On
Versions: 1 2 3 4 5 6 7 8 9 10 11 12 13 14 15 16 17 18 19
000
FTUS43 KBIS 301100
TAFMOT
TAF
KMOT 301134Z 3012/3112 11003KT P6SM SKC
     FM301500 15010KT P6SM SKC
     FM310300 14012KT 6SM -SHRA VCTS BKN060CB
     FM310900 30007KT P6SM VCSH BKN050=

USA.gov is the U.S. government's official web portal to all federal, state and local government web resources and services.